EWG37L EDDS-EDDP
Flight info
| Callsign | EWG37L |
|---|---|
| Flight time | N/A |
| Altitude | 35000 |
| Route | OKIBA4B/25 OKIBA N851 RIMKI Z99 LOHRE N746 TIKNI T279 TAMEB T955 GOXLI GOXLI1R |
| Aircraft | A20N/M-SDE2E3FGHIRWXY/LB1 |
Departure
| Time | 2026-05-07 18:28 |
|---|---|
| Airport | Stuttgart Airport (EDDS) |
Arrival
| Time | N/A |
|---|---|
| Airport | Leipzig/Halle Airport (EDDP) |
| Time | Latitude | Longitude | Altitude | Speed | Heading |
|---|---|---|---|---|---|
| 2026-05-07 18:07 | 48.69066 | 9.19971 | 1298 ft | 0 kts | 344° |
| 2026-05-07 18:19 | 48.69059 | 9.19974 | 1298 ft | 3 kts | 344° |
| 2026-05-07 18:19 | 48.69040 | 9.19983 | 1297 ft | 3 kts | 343° |
| 2026-05-07 18:19 | 48.69013 | 9.19995 | 1295 ft | 4 kts | 343° |
| 2026-05-07 18:20 | 48.68984 | 9.20005 | 1293 ft | 4 kts | 14° |
| 2026-05-07 18:20 | 48.68959 | 9.19982 | 1292 ft | 4 kts | 39° |
| 2026-05-07 18:20 | 48.68941 | 9.19948 | 1292 ft | 4 kts | 62° |
| 2026-05-07 18:20 | 48.68929 | 9.19916 | 1293 ft | 0 kts | 58° |
| 2026-05-07 18:22 | 48.68935 | 9.19930 | 1293 ft | 6 kts | 57° |
| 2026-05-07 18:23 | 48.68989 | 9.20066 | 1290 ft | 24 kts | 67° |
| 2026-05-07 18:23 | 48.69048 | 9.20366 | 1284 ft | 24 kts | 73° |
| 2026-05-07 18:23 | 48.69016 | 9.20541 | 1274 ft | 25 kts | 135° |
| 2026-05-07 18:23 | 48.68979 | 9.20779 | 1272 ft | 27 kts | 75° |
| 2026-05-07 18:24 | 48.69038 | 9.21065 | 1268 ft | 31 kts | 54° |
| 2026-05-07 18:24 | 48.69072 | 9.21225 | 1260 ft | 21 kts | 87° |
| 2026-05-07 18:24 | 48.69118 | 9.21508 | 1259 ft | 22 kts | 73° |
| 2026-05-07 18:24 | 48.69126 | 9.21548 | 1258 ft | 8 kts | 73° |
| 2026-05-07 18:25 | 48.69157 | 9.21713 | 1248 ft | 22 kts | 75° |
| 2026-05-07 18:25 | 48.69212 | 9.22007 | 1244 ft | 35 kts | 73° |
| 2026-05-07 18:25 | 48.69261 | 9.22270 | 1232 ft | 31 kts | 74° |
| 2026-05-07 18:25 | 48.69328 | 9.22626 | 1226 ft | 25 kts | 75° |
| 2026-05-07 18:26 | 48.69386 | 9.22928 | 1223 ft | 37 kts | 74° |
| 2026-05-07 18:26 | 48.69456 | 9.23297 | 1214 ft | 24 kts | 72° |
| 2026-05-07 18:26 | 48.69518 | 9.23624 | 1206 ft | 40 kts | 75° |
| 2026-05-07 18:26 | 48.69584 | 9.23966 | 1199 ft | 33 kts | 74° |
| 2026-05-07 18:27 | 48.69574 | 9.24254 | 1191 ft | 16 kts | 124° |
| 2026-05-07 18:27 | 48.69434 | 9.24324 | 1188 ft | 27 kts | 189° |
| 2026-05-07 18:27 | 48.69364 | 9.24184 | 1190 ft | 0 kts | 255° |
| 2026-05-07 18:27 | 48.69364 | 9.24183 | 1190 ft | 1 kts | 255° |
| 2026-05-07 18:28 | 48.69320 | 9.23946 | 1195 ft | 59 kts | 253° |
| 2026-05-07 18:28 | 48.69143 | 9.23020 | 1223 ft | 121 kts | 253° |
| 2026-05-07 18:28 | 48.68877 | 9.21563 | 1390 ft | 155 kts | 255° |
| 2026-05-07 18:28 | 48.68622 | 9.20000 | 2041 ft | 152 kts | 257° |
| 2026-05-07 18:29 | 48.68375 | 9.18434 | 2689 ft | 157 kts | 256° |
| 2026-05-07 18:29 | 48.68076 | 9.16646 | 3067 ft | 195 kts | 255° |
| 2026-05-07 18:29 | 48.67671 | 9.14623 | 3742 ft | 211 kts | 253° |
| 2026-05-07 18:29 | 48.67185 | 9.12405 | 4324 ft | 233 kts | 251° |
| 2026-05-07 18:30 | 48.66786 | 9.09957 | 4795 ft | 246 kts | 269° |
| 2026-05-07 18:30 | 48.67149 | 9.07452 | 4935 ft | 247 kts | 298° |
| 2026-05-07 18:30 | 48.68269 | 9.05555 | 4953 ft | 248 kts | 327° |
| 2026-05-07 18:30 | 48.69893 | 9.04735 | 4956 ft | 249 kts | 356° |
| 2026-05-07 18:31 | 48.71662 | 9.04613 | 4956 ft | 267 kts | 354° |
| 2026-05-07 18:31 | 48.73519 | 9.04190 | 4953 ft | 270 kts | 348° |
| 2026-05-07 18:31 | 48.75380 | 9.03861 | 4951 ft | 271 kts | 4° |
| 2026-05-07 18:31 | 48.77185 | 9.04687 | 5222 ft | 275 kts | 31° |
| 2026-05-07 18:32 | 48.78565 | 9.06675 | 6057 ft | 276 kts | 54° |
| 2026-05-07 18:32 | 48.79676 | 9.09051 | 7152 ft | 277 kts | 54° |
| 2026-05-07 18:32 | 48.80803 | 9.11451 | 8134 ft | 281 kts | 54° |
| 2026-05-07 18:32 | 48.81946 | 9.13890 | 9084 ft | 285 kts | 54° |
| 2026-05-07 18:33 | 48.83086 | 9.16332 | 10025 ft | 289 kts | 54° |
| 2026-05-07 18:33 | 48.84275 | 9.18884 | 10646 ft | 306 kts | 54° |
| 2026-05-07 18:33 | 48.85579 | 9.21598 | 10987 ft | 330 kts | 48° |
| 2026-05-07 18:33 | 48.87434 | 9.23755 | 11524 ft | 343 kts | 25° |
| 2026-05-07 18:34 | 48.89724 | 9.24775 | 12360 ft | 346 kts | 9° |
| 2026-05-07 18:34 | 48.92127 | 9.25192 | 13185 ft | 350 kts | 5° |
| 2026-05-07 18:34 | 48.94574 | 9.25516 | 13740 ft | 354 kts | 5° |
| 2026-05-07 18:34 | 48.97038 | 9.25915 | 13942 ft | 355 kts | 6° |
| 2026-05-07 18:35 | 48.99492 | 9.26401 | 13997 ft | 356 kts | 7° |
| 2026-05-07 18:35 | 49.01949 | 9.26948 | 13998 ft | 356 kts | 8° |
| 2026-05-07 18:35 | 49.04312 | 9.27857 | 13996 ft | 356 kts | 23° |
| 2026-05-07 18:35 | 49.06545 | 9.29507 | 14003 ft | 357 kts | 26° |
| 2026-05-07 18:36 | 49.08758 | 9.31209 | 13997 ft | 357 kts | 27° |
| 2026-05-07 18:36 | 49.10973 | 9.32941 | 13996 ft | 357 kts | 27° |
| 2026-05-07 18:36 | 49.13174 | 9.34678 | 14002 ft | 356 kts | 27° |
| 2026-05-07 18:36 | 49.15375 | 9.36430 | 14068 ft | 357 kts | 27° |
| 2026-05-07 18:37 | 49.17596 | 9.38198 | 14371 ft | 362 kts | 27° |
| 2026-05-07 18:37 | 49.19831 | 9.39973 | 15242 ft | 362 kts | 27° |
| 2026-05-07 18:37 | 49.22074 | 9.41755 | 16005 ft | 365 kts | 27° |
| 2026-05-07 18:37 | 49.24343 | 9.43561 | 16707 ft | 370 kts | 27° |
| 2026-05-07 18:38 | 49.26638 | 9.45391 | 17422 ft | 374 kts | 27° |
| 2026-05-07 18:38 | 49.28963 | 9.47247 | 18091 ft | 378 kts | 27° |
| 2026-05-07 18:38 | 49.31284 | 9.49102 | 18739 ft | 382 kts | 27° |
| 2026-05-07 18:38 | 49.33650 | 9.50995 | 19401 ft | 385 kts | 27° |
| 2026-05-07 18:39 | 49.36040 | 9.52910 | 20036 ft | 389 kts | 27° |
| 2026-05-07 18:39 | 49.38449 | 9.54841 | 20636 ft | 393 kts | 27° |
| 2026-05-07 18:39 | 49.40889 | 9.56801 | 21241 ft | 397 kts | 27° |
| 2026-05-07 18:39 | 49.43356 | 9.58784 | 21817 ft | 401 kts | 27° |
| 2026-05-07 18:40 | 49.45839 | 9.60782 | 22396 ft | 404 kts | 27° |
| 2026-05-07 18:40 | 49.48341 | 9.62798 | 22954 ft | 407 kts | 27° |
| 2026-05-07 18:40 | 49.50827 | 9.64803 | 23497 ft | 411 kts | 27° |
| 2026-05-07 18:40 | 49.53370 | 9.66856 | 24011 ft | 414 kts | 27° |
| 2026-05-07 18:41 | 49.55935 | 9.68930 | 24481 ft | 417 kts | 27° |
| 2026-05-07 18:41 | 49.58523 | 9.71024 | 24976 ft | 419 kts | 27° |
| 2026-05-07 18:41 | 49.61119 | 9.73129 | 25398 ft | 423 kts | 27° |
| 2026-05-07 18:41 | 49.63734 | 9.75250 | 25846 ft | 426 kts | 27° |
| 2026-05-07 18:42 | 49.66368 | 9.77391 | 26251 ft | 429 kts | 27° |
| 2026-05-07 18:42 | 49.69017 | 9.79546 | 26649 ft | 432 kts | 27° |
| 2026-05-07 18:42 | 49.71688 | 9.81721 | 27038 ft | 434 kts | 27° |
| 2026-05-07 18:42 | 49.74334 | 9.83879 | 27416 ft | 437 kts | 27° |
| 2026-05-07 18:43 | 49.77030 | 9.86081 | 27773 ft | 439 kts | 27° |
| 2026-05-07 18:43 | 49.79744 | 9.88300 | 28139 ft | 442 kts | 27° |
| 2026-05-07 18:43 | 49.82470 | 9.90531 | 28495 ft | 444 kts | 27° |
| 2026-05-07 18:43 | 49.85205 | 9.92774 | 28813 ft | 446 kts | 27° |
| 2026-05-07 18:44 | 49.87958 | 9.95033 | 29115 ft | 449 kts | 27° |
| 2026-05-07 18:44 | 49.90728 | 9.97310 | 29426 ft | 451 kts | 27° |
| 2026-05-07 18:44 | 49.93505 | 9.99595 | 29715 ft | 453 kts | 27° |
| 2026-05-07 18:44 | 49.96269 | 10.01872 | 30025 ft | 455 kts | 27° |
| 2026-05-07 18:45 | 49.99072 | 10.04185 | 30323 ft | 457 kts | 28° |
| 2026-05-07 18:45 | 50.01886 | 10.06510 | 30599 ft | 459 kts | 28° |
| 2026-05-07 18:45 | 50.04711 | 10.08848 | 30896 ft | 461 kts | 28° |
| 2026-05-07 18:45 | 50.07557 | 10.11205 | 31214 ft | 462 kts | 28° |
| 2026-05-07 18:46 | 50.10394 | 10.13558 | 31586 ft | 462 kts | 28° |
| 2026-05-07 18:46 | 50.13194 | 10.15885 | 31949 ft | 461 kts | 28° |
| 2026-05-07 18:46 | 50.16031 | 10.18245 | 32312 ft | 460 kts | 28° |
| 2026-05-07 18:46 | 50.18852 | 10.20594 | 32649 ft | 460 kts | 28° |
| 2026-05-07 18:47 | 50.21676 | 10.22950 | 32920 ft | 459 kts | 28° |
| 2026-05-07 18:47 | 50.27301 | 10.27651 | 33000 ft | 457 kts | 28° |
| 2026-05-07 18:48 | 50.32910 | 10.32352 | 33000 ft | 457 kts | 28° |
| 2026-05-07 18:48 | 50.38485 | 10.37036 | 33000 ft | 457 kts | 28° |
| 2026-05-07 18:49 | 50.44109 | 10.41774 | 33000 ft | 457 kts | 28° |
| 2026-05-07 18:49 | 50.49716 | 10.46511 | 33001 ft | 458 kts | 28° |
| 2026-05-07 18:50 | 50.55315 | 10.51254 | 32578 ft | 455 kts | 28° |
| 2026-05-07 18:50 | 50.58110 | 10.53627 | 31781 ft | 459 kts | 28° |
| 2026-05-07 18:50 | 50.60939 | 10.56032 | 30793 ft | 464 kts | 28° |
| 2026-05-07 18:50 | 50.63799 | 10.58466 | 29810 ft | 469 kts | 28° |
| 2026-05-07 18:51 | 50.66637 | 10.60884 | 28878 ft | 471 kts | 28° |
| 2026-05-07 18:51 | 50.69522 | 10.63348 | 27860 ft | 474 kts | 28° |
| 2026-05-07 18:51 | 50.72429 | 10.65832 | 26805 ft | 477 kts | 28° |
| 2026-05-07 18:51 | 50.75349 | 10.68331 | 25847 ft | 477 kts | 28° |
| 2026-05-07 18:52 | 50.78184 | 10.70954 | 25309 ft | 467 kts | 35° |
| 2026-05-07 18:52 | 50.80614 | 10.74206 | 25087 ft | 450 kts | 46° |
| 2026-05-07 18:52 | 50.82561 | 10.77954 | 24987 ft | 432 kts | 56° |
| 2026-05-07 18:52 | 50.84094 | 10.81954 | 24718 ft | 420 kts | 59° |
| 2026-05-07 18:53 | 50.85571 | 10.85914 | 24160 ft | 416 kts | 59° |
| 2026-05-07 18:53 | 50.87037 | 10.89839 | 23589 ft | 412 kts | 59° |
| 2026-05-07 18:53 | 50.88485 | 10.93731 | 23035 ft | 408 kts | 59° |
| 2026-05-07 18:53 | 50.89921 | 10.97601 | 22456 ft | 405 kts | 59° |
| 2026-05-07 18:54 | 50.91338 | 11.01436 | 21880 ft | 402 kts | 59° |
| 2026-05-07 18:54 | 50.92742 | 11.05242 | 21310 ft | 398 kts | 59° |
| 2026-05-07 18:54 | 50.94116 | 11.08972 | 20754 ft | 395 kts | 59° |
| 2026-05-07 18:54 | 50.95492 | 11.12716 | 20262 ft | 390 kts | 59° |
| 2026-05-07 18:55 | 50.96846 | 11.16404 | 20061 ft | 387 kts | 59° |
| 2026-05-07 18:55 | 50.98208 | 11.20118 | 19992 ft | 389 kts | 59° |
| 2026-05-07 18:55 | 50.99566 | 11.23828 | 19722 ft | 388 kts | 59° |
| 2026-05-07 18:55 | 51.00910 | 11.27503 | 19554 ft | 380 kts | 59° |
| 2026-05-07 18:56 | 51.02242 | 11.31153 | 19388 ft | 379 kts | 60° |
| 2026-05-07 18:56 | 51.03549 | 11.34737 | 19030 ft | 372 kts | 60° |
| 2026-05-07 18:56 | 51.04837 | 11.38277 | 18529 ft | 369 kts | 60° |
| 2026-05-07 18:56 | 51.06118 | 11.41800 | 18005 ft | 366 kts | 60° |
| 2026-05-07 18:57 | 51.07388 | 11.45300 | 17507 ft | 363 kts | 60° |
| 2026-05-07 18:57 | 51.08647 | 11.48771 | 17013 ft | 361 kts | 60° |
| 2026-05-07 18:57 | 51.09889 | 11.52217 | 16518 ft | 358 kts | 62° |
| 2026-05-07 18:57 | 51.10860 | 11.55788 | 16031 ft | 355 kts | 72° |
| 2026-05-07 18:58 | 51.11400 | 11.59602 | 15514 ft | 353 kts | 83° |
| 2026-05-07 18:58 | 51.11562 | 11.63485 | 15017 ft | 350 kts | 89° |
| 2026-05-07 18:58 | 51.11578 | 11.67348 | 14518 ft | 348 kts | 85° |
| 2026-05-07 18:58 | 51.12201 | 11.71034 | 14023 ft | 345 kts | 63° |
| 2026-05-07 18:59 | 51.13459 | 11.74281 | 13434 ft | 344 kts | 56° |
| 2026-05-07 18:59 | 51.14833 | 11.77362 | 13098 ft | 337 kts | 53° |
| 2026-05-07 18:59 | 51.16279 | 11.80267 | 12742 ft | 331 kts | 50° |
| 2026-05-07 18:59 | 51.17789 | 11.82988 | 12399 ft | 325 kts | 46° |
| 2026-05-07 19:00 | 51.19305 | 11.85625 | 12025 ft | 321 kts | 49° |
| 2026-05-07 19:00 | 51.20694 | 11.88364 | 11719 ft | 314 kts | 53° |
| 2026-05-07 19:00 | 51.21945 | 11.91179 | 11419 ft | 308 kts | 56° |
| 2026-05-07 19:00 | 51.23083 | 11.93975 | 11158 ft | 301 kts | 55° |
| 2026-05-07 19:01 | 51.24299 | 11.96731 | 10525 ft | 307 kts | 54° |
| 2026-05-07 19:01 | 51.25549 | 11.99540 | 9974 ft | 310 kts | 53° |
| 2026-05-07 19:01 | 51.27071 | 12.01830 | 9837 ft | 296 kts | 29° |
| 2026-05-07 19:01 | 51.28969 | 12.02845 | 9614 ft | 284 kts | 3° |
| 2026-05-07 19:02 | 51.30859 | 12.02420 | 9512 ft | 270 kts | 336° |
| 2026-05-07 19:02 | 51.32332 | 12.00728 | 9404 ft | 256 kts | 308° |
| 2026-05-07 19:02 | 51.33082 | 11.98235 | 9135 ft | 249 kts | 279° |
| 2026-05-07 19:02 | 51.33077 | 11.95471 | 8769 ft | 249 kts | 264° |
| 2026-05-07 19:03 | 51.32917 | 11.92725 | 8437 ft | 248 kts | 264° |
| 2026-05-07 19:03 | 51.32754 | 11.89979 | 8009 ft | 251 kts | 264° |
| 2026-05-07 19:03 | 51.32586 | 11.87152 | 7432 ft | 260 kts | 264° |
| 2026-05-07 19:03 | 51.32528 | 11.84220 | 6798 ft | 269 kts | 279° |
| 2026-05-07 19:04 | 51.32897 | 11.82312 | 6350 ft | 275 kts | 297° |
| 2026-05-07 19:04 | 51.34130 | 11.79952 | 5810 ft | 279 kts | 325° |
| 2026-05-07 19:04 | 51.36486 | 11.78666 | 5474 ft | 270 kts | 353° |
| 2026-05-07 19:04 | 51.38355 | 11.78385 | 5101 ft | 269 kts | 354° |
| 2026-05-07 19:05 | 51.39616 | 11.78360 | 4842 ft | 269 kts | 8° |
| 2026-05-07 19:05 | 51.41336 | 11.79431 | 4477 ft | 266 kts | 37° |
| 2026-05-07 19:05 | 51.42486 | 11.81640 | 4350 ft | 254 kts | 66° |
| 2026-05-07 19:05 | 51.42795 | 11.84301 | 4252 ft | 242 kts | 96° |
| 2026-05-07 19:06 | 51.42309 | 11.86809 | 4137 ft | 232 kts | 114° |
| 2026-05-07 19:06 | 51.41516 | 11.91666 | 3807 ft | 216 kts | 113° |
| 2026-05-07 19:06 | 51.40993 | 11.93878 | 3516 ft | 216 kts | 102° |
| 2026-05-07 19:07 | 51.40640 | 11.96294 | 3074 ft | 224 kts | 111° |
| 2026-05-07 19:07 | 51.40038 | 11.98549 | 2938 ft | 216 kts | 114° |
| 2026-05-07 19:07 | 51.39458 | 12.00677 | 2948 ft | 200 kts | 112° |
| 2026-05-07 19:07 | 51.39156 | 12.02786 | 2728 ft | 197 kts | 85° |
| 2026-05-07 19:08 | 51.39519 | 12.05049 | 2504 ft | 232 kts | 69° |
| 2026-05-07 19:08 | 51.40158 | 12.07553 | 2353 ft | 243 kts | 67° |
| 2026-05-07 19:08 | 51.40567 | 12.10238 | 1724 ft | 254 kts | 83° |
| 2026-05-07 19:08 | 51.40769 | 12.13039 | 1184 ft | 242 kts | 84° |
| 2026-05-07 19:09 | 51.40901 | 12.15332 | 1409 ft | 189 kts | 86° |
| 2026-05-07 19:09 | 51.40985 | 12.17566 | 1997 ft | 211 kts | 87° |
| 2026-05-07 19:09 | 51.40940 | 12.20005 | 2696 ft | 227 kts | 92° |
| 2026-05-07 19:09 | 51.40619 | 12.22640 | 3036 ft | 259 kts | 116° |
| 2026-05-07 19:10 | 51.39493 | 12.24960 | 3805 ft | 266 kts | 141° |
| 2026-05-07 19:10 | 51.37872 | 12.26333 | 4434 ft | 267 kts | 166° |
| 2026-05-07 19:10 | 51.36012 | 12.26440 | 4478 ft | 270 kts | 193° |
| 2026-05-07 19:10 | 51.34345 | 12.25169 | 4412 ft | 265 kts | 221° |